Time;durP1;ratioP1;P1;durP2;ratioP2;P2;SDS_P1;SDS_P2;PMS_P1;PMS_P2;Temp;Humidity;BMP_temperature;BMP_pressure;BME280_temperature;BME280_humidity;BME280_pressure;Samples;Min_cycle;Max_cycle;Signal;HPM_P1;HPM_P2
2022/06/01 00:02:15;;;;;;;2.58;1.90;;;13.00;99.90;;;;;;5000629;28;20088;-78
2022/06/01 00:04:41;;;;;;;3.30;2.22;;;12.90;99.90;;;;;;5001953;28;20330;-77
2022/06/01 00:07:07;;;;;;;2.70;1.98;;;12.90;99.90;;;;;;5003681;28;20045;-77
2022/06/01 00:09:32;;;;;;;2.55;2.35;;;12.80;99.90;;;;;;5001316;28;20797;-77
2022/06/01 00:11:58;;;;;;;3.95;2.15;;;12.80;99.90;;;;;;5003369;28;20037;-77
2022/06/01 00:14:24;;;;;;;2.70;1.90;;;12.70;99.90;;;;;;4998992;28;20053;-77
2022/06/01 00:16:55;;;;;;;1.65;1.42;;;12.60;99.90;;;;;;4997737;28;20054;-77
2022/06/01 00:19:21;;;;;;;3.15;1.73;;;12.60;99.90;;;;;;4997732;28;20105;-77
2022/06/01 00:24:31;;;;;;;1.83;1.73;;;12.60;99.90;;;;;;5000841;28;20077;-77
2022/06/01 00:26:57;;;;;;;1.83;1.73;;;12.70;99.90;;;;;;5003167;28;20029;-77
2022/06/01 00:29:22;;;;;;;1.67;1.58;;;12.70;99.90;;;;;;4998652;28;20353;-77
2022/06/01 00:31:48;;;;;;;2.50;1.73;;;12.70;99.90;;;;;;4995218;28;20128;-76
2022/06/01 00:34:13;;;;;;;2.10;1.90;;;12.70;99.90;;;;;;5000210;28;20046;-77
2022/06/01 00:36:39;;;;;;;3.60;2.03;;;12.70;99.90;;;;;;4997502;28;20551;-77
2022/06/01 00:39:05;;;;;;;2.28;1.80;;;12.70;99.90;;;;;;4999906;28;20088;-77
2022/06/01 00:41:30;;;;;;;1.92;1.73;;;12.70;99.90;;;;;;4999048;28;20187;-78
2022/06/01 00:43:56;;;;;;;3.13;2.15;;;12.60;99.90;;;;;;5008790;28;20055;-76
2022/06/01 00:46:22;;;;;;;2.20;2.00;;;12.60;99.90;;;;;;5002482;28;20034;-76
2022/06/01 00:48:52;;;;;;;2.08;1.85;;;12.70;99.90;;;;;;5004213;28;20133;-77
2022/06/01 00:51:23;;;;;;;3.65;2.40;;;12.70;99.90;;;;;;5004377;28;20037;-77
2022/06/01 00:53:52;;;;;;;2.08;1.73;;;12.40;99.90;;;;;;4994898;28;20041;-77
2022/06/01 00:56:22;;;;;;;;;;;12.20;99.90;;;;;;5000000;28;20419;-77
2022/06/01 00:58:51;;;;;;;2.10;1.90;;;12.20;99.90;;;;;;4996709;28;20300;-77
2022/06/01 01:01:20;;;;;;;1.98;1.70;;;12.20;99.90;;;;;;4998405;28;20825;-77
2022/06/01 01:03:49;;;;;;;1.70;1.60;;;12.10;99.90;;;;;;5002660;28;20159;-77
2022/06/01 01:06:25;;;;;;;2.03;1.83;;;12.20;99.90;;;;;;4985294;28;20071;-76
2022/06/01 01:08:51;;;;;;;1.80;1.70;;;12.00;99.90;;;;;;5003185;28;20034;-77
2022/06/01 01:11:25;;;;;;;2.90;1.70;;;12.10;99.90;;;;;;4987857;28;20053;-76
2022/06/01 01:13:53;;;;;;;2.17;1.92;;;12.10;99.90;;;;;;5001570;28;20034;-77
2022/06/01 01:16:20;;;;;;;3.75;1.90;;;12.10;99.90;;;;;;5000569;28;20465;-77
2022/06/01 01:18:47;;;;;;;2.17;1.65;;;12.10;99.90;;;;;;5008003;28;20433;-77
2022/06/01 01:21:33;;;;;;;2.43;2.20;;;12.10;99.90;;;;;;5005233;28;20172;-77
2022/06/01 01:24:22;;;;;;;2.25;2.05;;;12.10;99.90;;;;;;5000864;28;20035;-77
2022/06/01 01:26:50;;;;;;;5.63;2.10;;;12.10;99.90;;;;;;4996812;28;20125;-78
2022/06/01 01:29:28;;;;;;;1.80;1.70;;;12.10;99.90;;;;;;5002317;28;20033;-77
2022/06/01 01:31:54;;;;;;;2.30;2.10;;;12.10;99.90;;;;;;5001160;28;20149;-77
2022/06/01 01:34:20;;;;;;;3.90;3.10;;;12.10;99.90;;;;;;5003298;28;20112;-77
2022/06/01 01:36:50;;;;;;;3.78;3.40;;;12.10;99.90;;;;;;5001783;28;20037;-77
2022/06/01 01:39:16;;;;;;;5.78;3.80;;;12.10;99.90;;;;;;4999320;28;20038;-77
2022/06/01 01:41:45;;;;;;;8.25;3.20;;;12.10;99.90;;;;;;4998204;28;20034;-77
2022/06/01 01:44:14;;;;;;;2.30;2.13;;;12.10;99.90;;;;;;4999272;28;20045;-77
2022/06/01 01:46:43;;;;;;;2.78;2.58;;;12.10;99.90;;;;;;4999876;28;20075;-77
2022/06/01 01:49:08;;;;;;;1.75;1.65;;;12.10;99.90;;;;;;5002552;28;20049;-77
2022/06/01 01:51:34;;;;;;;1.70;1.60;;;12.00;99.90;;;;;;4999790;28;20046;-77
2022/06/01 01:54:01;;;;;;;1.95;1.85;;;11.90;99.90;;;;;;4993796;28;20034;-77
2022/06/01 01:56:41;;;;;;;2.00;1.77;;;11.60;99.90;;;;;;4991790;28;20177;-77
2022/06/01 01:59:18;;;;;;;1.85;1.70;;;11.30;99.90;;;;;;4996065;28;20038;-77
2022/06/01 02:01:48;;;;;;;2.10;1.90;;;11.40;99.90;;;;;;4996166;28;20038;-77
2022/06/01 02:07:19;;;;;;;7.55;3.95;;;11.50;99.90;;;;;;5003142;28;20076;-77
2022/06/01 02:12:42;;;;;;;2.28;2.08;;;11.30;99.90;;;;;;5002850;28;20122;-77
2022/06/01 02:15:11;;;;;;;2.80;2.13;;;11.30;99.90;;;;;;5004642;28;20034;-78
2022/06/01 02:17:49;;;;;;;2.83;2.20;;;11.30;99.90;;;;;;5005542;28;20038;-77
2022/06/01 02:20:34;;;;;;;2.22;1.90;;;11.40;99.90;;;;;;4995074;28;20034;-77
2022/06/01 02:23:01;;;;;;;1.35;1.25;;;11.50;99.90;;;;;;4999309;28;20054;-77
2022/06/01 02:25:29;;;;;;;1.70;1.40;;;11.50;99.90;;;;;;5001781;28;20038;-77
2022/06/01 02:27:57;;;;;;;2.50;1.40;;;11.50;99.90;;;;;;5010870;28;20038;-77
2022/06/01 02:30:35;;;;;;;1.50;1.40;;;11.50;99.90;;;;;;5000528;28;20496;-78
2022/06/01 02:33:03;;;;;;;4.00;1.90;;;11.30;99.90;;;;;;5004798;28;20060;-77
2022/06/01 02:35:34;;;;;;;70.40;4.63;;;10.90;99.90;;;;;;5006559;28;20318;-77
2022/06/01 02:38:01;;;;;;;49.28;4.57;;;10.70;99.90;;;;;;5004725;28;20107;-77
2022/06/01 02:40:29;;;;;;;2.07;1.80;;;10.50;99.90;;;;;;5005500;28;20303;-77
2022/06/01 02:42:54;;;;;;;1.48;1.38;;;10.40;99.90;;;;;;4998692;28;20300;-77
2022/06/01 02:45:24;;;;;;;1.83;1.70;;;10.40;99.90;;;;;;5008239;28;20034;-77
2022/06/01 02:47:52;;;;;;;2.33;1.73;;;10.50;99.90;;;;;;5003953;28;20041;-77
2022/06/01 02:50:23;;;;;;;1.83;1.70;;;10.40;99.90;;;;;;5007862;28;20465;-77
2022/06/01 02:52:49;;;;;;;1.65;1.55;;;10.40;99.90;;;;;;5006364;28;20037;-77
2022/06/01 02:55:15;;;;;;;1.65;1.55;;;10.60;99.90;;;;;;5002995;28;20029;-77
2022/06/01 02:57:42;;;;;;;4.53;1.60;;;10.60;99.90;;;;;;5002213;28;20062;-78
2022/06/01 03:00:17;;;;;;;2.08;1.85;;;10.50;99.90;;;;;;5000918;28;20034;-78
2022/06/01 03:02:44;;;;;;;1.77;1.63;;;10.40;99.90;;;;;;5007750;28;20034;-77
2022/06/01 03:05:11;;;;;;;3.93;1.20;;;10.40;99.90;;;;;;5002083;28;20044;-78
2022/06/01 03:07:37;;;;;;;1.20;1.20;;;10.30;99.90;;;;;;5009621;28;20316;-77
2022/06/01 03:10:03;;;;;;;1.13;1.13;;;10.10;99.90;;;;;;5009409;28;20064;-77
2022/06/01 03:12:28;;;;;;;1.33;1.23;;;10.20;99.90;;;;;;5003533;28;20061;-77
2022/06/01 03:14:54;;;;;;;1.00;1.00;;;10.10;99.90;;;;;;5007458;28;20503;-77
2022/06/01 03:17:19;;;;;;;1.48;1.38;;;10.00;99.90;;;;;;5001673;28;20049;-77
2022/06/01 03:19:45;;;;;;;1.75;1.60;;;10.20;99.90;;;;;;5007542;28;20042;-77
2022/06/01 03:22:11;;;;;;;1.52;1.42;;;10.20;99.90;;;;;;5006384;28;20067;-77
2022/06/01 03:24:36;;;;;;;2.17;1.80;;;10.20;99.90;;;;;;5000206;28;20030;-77
2022/06/01 03:27:02;;;;;;;2.28;2.08;;;10.10;99.90;;;;;;5005886;28;20479;-77
2022/06/01 03:29:28;;;;;;;2.97;2.30;;;10.00;99.90;;;;;;5000695;28;20039;-77
2022/06/01 03:31:54;;;;;;;2.97;2.20;;;10.00;99.90;;;;;;5004867;28;20397;-78
2022/06/01 03:34:20;;;;;;;1.58;1.48;;;10.10;99.90;;;;;;5005063;28;20195;-77
2022/06/01 03:36:46;;;;;;;1.65;1.55;;;10.20;99.90;;;;;;5000108;28;20030;-77
2022/06/01 03:39:11;;;;;;;1.50;1.40;;;10.20;99.90;;;;;;4996193;28;20037;-78
2022/06/01 03:41:37;;;;;;;1.80;1.70;;;10.30;99.90;;;;;;5002860;28;20425;-77
2022/06/01 03:46:48;;;;;;;2.08;1.90;;;10.40;99.90;;;;;;5000437;28;20053;-77
2022/06/01 03:49:13;;;;;;;5.45;2.30;;;10.50;99.90;;;;;;4997447;28;20046;-77
2022/06/01 03:51:39;;;;;;;7.93;2.38;;;10.30;99.90;;;;;;4998412;28;20034;-77
2022/06/01 03:54:06;;;;;;;2.50;2.30;;;10.30;99.90;;;;;;5002000;28;20060;-78
2022/06/01 03:56:32;;;;;;;3.33;2.25;;;10.30;99.90;;;;;;4982594;28;20081;-77
2022/06/01 03:58:59;;;;;;;2.83;2.30;;;10.20;99.90;;;;;;4996191;28;20111;-78
2022/06/01 04:01:24;;;;;;;2.40;2.20;;;10.20;99.90;;;;;;4998476;28;20068;-77
2022/06/01 04:03:50;;;;;;;5.10;2.10;;;10.20;99.90;;;;;;5005549;28;20347;-77
2022/06/01 04:06:16;;;;;;;2.95;2.63;;;10.20;99.90;;;;;;5005101;28;20061;-78
2022/06/01 04:08:41;;;;;;;2.70;2.50;;;10.20;99.90;;;;;;5006971;28;20188;-77
2022/06/01 04:11:10;;;;;;;4.22;2.42;;;10.30;99.90;;;;;;5005457;28;20176;-78
2022/06/01 04:13:36;;;;;;;3.95;2.35;;;10.30;99.90;;;;;;5003458;28;20066;-77
2022/06/01 04:16:01;;;;;;;3.50;2.70;;;10.10;99.90;;;;;;4988586;28;20373;-77
2022/06/01 04:18:27;;;;;;;2.42;2.22;;;10.00;99.90;;;;;;5001403;28;20061;-77
2022/06/01 04:20:54;;;;;;;3.67;2.30;;;9.90;99.90;;;;;;5003091;28;20038;-77
2022/06/01 04:23:20;;;;;;;1.90;1.80;;;9.70;99.90;;;;;;4973008;28;20087;-78
2022/06/01 04:25:46;;;;;;;2.03;1.88;;;9.70;99.90;;;;;;4998891;28;20034;-77
2022/06/01 04:28:11;;;;;;;1.60;1.50;;;9.60;99.90;;;;;;5002464;28;20070;-77
2022/06/01 04:30:38;;;;;;;1.60;1.50;;;9.60;99.90;;;;;;5002226;28;20554;-78
2022/06/01 04:33:04;;;;;;;1.45;1.40;;;9.60;99.90;;;;;;4987719;28;20030;-77
2022/06/01 04:35:30;;;;;;;1.70;1.60;;;9.60;99.90;;;;;;5000903;28;20096;-77
2022/06/01 04:38:12;;;;;;;1.70;1.60;;;9.60;99.90;;;;;;5003229;28;20109;-77
2022/06/01 04:40:45;;;;;;;1.85;1.75;;;9.70;99.90;;;;;;4997089;28;20038;-77
2022/06/01 04:43:16;;;;;;;2.20;2.00;;;9.80;99.90;;;;;;5006274;28;20029;-77
2022/06/01 04:45:42;;;;;;;2.10;1.90;;;10.10;99.90;;;;;;4999850;28;20424;-77
2022/06/01 04:48:08;;;;;;;3.80;2.22;;;10.30;99.90;;;;;;5001431;28;20054;-77
2022/06/01 04:50:34;;;;;;;2.47;2.10;;;10.40;99.90;;;;;;4997835;28;20034;-78
2022/06/01 04:53:00;;;;;;;2.05;1.90;;;10.40;99.90;;;;;;5005753;28;21613;-77
2022/06/01 04:55:26;;;;;;;2.38;2.17;;;10.30;99.90;;;;;;5001202;28;20072;-77
2022/06/01 04:57:52;;;;;;;2.40;2.20;;;10.40;99.90;;;;;;4999317;28;20415;-77
2022/06/01 05:00:18;;;;;;;2.35;2.15;;;10.50;99.90;;;;;;5004093;28;20676;-77
2022/06/01 05:02:44;;;;;;;2.88;2.67;;;10.60;99.90;;;;;;5002010;28;20042;-77
2022/06/01 05:05:10;;;;;;;3.97;2.53;;;10.90;99.90;;;;;;5001239;28;20038;-78
2022/06/01 05:07:36;;;;;;;3.47;2.63;;;11.20;99.90;;;;;;4989866;28;20026;-78
2022/06/01 05:10:02;;;;;;;4.93;4.53;;;11.60;99.90;;;;;;5004474;28;20030;-77
2022/06/01 05:12:27;;;;;;;3.30;3.00;;;11.70;99.90;;;;;;4997494;28;20120;-77
2022/06/01 05:14:53;;;;;;;3.38;3.03;;;11.80;99.90;;;;;;5004419;28;20032;-77
2022/06/01 05:17:19;;;;;;;3.30;3.00;;;12.00;99.90;;;;;;4997162;28;20058;-78
2022/06/01 05:19:44;;;;;;;4.53;3.55;;;12.10;99.90;;;;;;4996582;28;20149;-78
2022/06/01 05:22:10;;;;;;;3.30;2.95;;;12.40;99.90;;;;;;5005994;28;20033;-77
2022/06/01 05:24:36;;;;;;;4.32;3.20;;;12.60;99.90;;;;;;5004058;28;20038;-78
2022/06/01 05:27:02;;;;;;;5.32;3.78;;;12.70;99.90;;;;;;5006517;28;20775;-77
2022/06/01 05:29:28;;;;;;;4.20;3.55;;;12.90;99.90;;;;;;5000378;28;20042;-77
2022/06/01 05:31:54;;;;;;;5.43;3.45;;;13.10;99.90;;;;;;4984945;28;20049;-78
2022/06/01 05:34:21;;;;;;;7.55;3.92;;;13.20;99.90;;;;;;4998792;28;20192;-78
2022/06/01 05:36:47;;;;;;;4.93;3.78;;;13.30;99.90;;;;;;4999519;28;20033;-77
2022/06/01 05:39:13;;;;;;;4.75;4.10;;;13.50;99.90;;;;;;5006410;28;20499;-78
2022/06/01 05:41:39;;;;;;;5.55;3.60;;;13.60;99.90;;;;;;5001326;28;20192;-78
2022/06/01 05:44:06;;;;;;;6.32;3.47;;;13.80;99.90;;;;;;4996814;28;20025;-78
2022/06/01 05:46:35;;;;;;;4.63;3.95;;;13.80;99.90;;;;;;5001453;28;20042;-77
2022/06/01 05:49:01;;;;;;;6.05;3.97;;;14.00;99.90;;;;;;4998533;28;20762;-77
2022/06/01 05:51:27;;;;;;;5.82;3.78;;;14.20;99.90;;;;;;4982408;28;20410;-77
2022/06/01 05:53:53;;;;;;;5.45;3.80;;;14.40;99.90;;;;;;4996738;28;20037;-77
2022/06/01 05:56:18;;;;;;;4.07;3.67;;;14.60;99.90;;;;;;5004534;28;20036;-79
2022/06/01 05:58:45;;;;;;;4.18;3.03;;;14.70;99.90;;;;;;4996013;28;20041;-79
2022/06/01 06:01:11;;;;;;;3.42;2.90;;;14.80;99.90;;;;;;4995727;28;20046;-79
2022/06/01 06:03:37;;;;;;;3.42;3.13;;;14.90;99.90;;;;;;4998814;28;20045;-79
2022/06/01 06:06:12;;;;;;;4.43;3.10;;;15.00;99.90;;;;;;4997754;28;20103;-78
2022/06/01 06:08:40;;;;;;;3.42;3.13;;;15.20;99.90;;;;;;4999579;28;20459;-78
2022/06/01 06:11:06;;;;;;;2.95;2.72;;;15.40;99.90;;;;;;4980050;28;20121;-79
2022/06/01 06:13:36;;;;;;;4.03;3.13;;;15.60;99.90;;;;;;4998273;28;20038;-79
2022/06/01 06:16:03;;;;;;;2.63;2.42;;;15.70;99.90;;;;;;4997975;28;20117;-79
2022/06/01 06:18:30;;;;;;;4.03;2.95;;;15.70;99.90;;;;;;4997145;28;20081;-79
2022/06/01 06:20:56;;;;;;;3.45;2.72;;;15.80;99.90;;;;;;4999877;28;20033;-79
2022/06/01 06:23:21;;;;;;;4.13;3.30;;;15.70;99.90;;;;;;4997866;28;20478;-79
2022/06/01 06:25:48;;;;;;;2.83;1.70;;;15.70;99.90;;;;;;4999264;28;20050;-80
2022/06/01 06:28:14;;;;;;;5.03;3.13;;;15.70;99.90;;;;;;4996593;28;20046;-78
2022/06/01 06:30:40;;;;;;;2.80;2.60;;;15.90;99.90;;;;;;4977754;28;20038;-79
2022/06/01 06:33:07;;;;;;;2.75;2.55;;;15.80;99.90;;;;;;4991994;28;20098;-79
2022/06/01 06:35:33;;;;;;;3.10;2.70;;;16.00;99.90;;;;;;4998466;28;20034;-79
2022/06/01 06:37:59;;;;;;;4.43;2.83;;;16.20;99.90;;;;;;4996962;28;20092;-80
2022/06/01 06:40:25;;;;;;;2.80;2.60;;;16.40;99.90;;;;;;4997226;28;20034;-80
2022/06/01 06:42:52;;;;;;;2.83;2.58;;;16.50;99.90;;;;;;4996115;28;20031;-80
2022/06/01 06:45:19;;;;;;;2.75;2.55;;;16.60;99.90;;;;;;4999408;28;20373;-79
2022/06/01 06:47:45;;;;;;;3.00;2.60;;;16.50;99.90;;;;;;5001728;28;20057;-79
2022/06/01 06:50:12;;;;;;;2.65;2.40;;;16.60;99.90;;;;;;4998871;28;20490;-79
2022/06/01 06:52:38;;;;;;;2.97;2.78;;;16.70;99.90;;;;;;4996692;28;20029;-79
2022/06/01 06:55:04;;;;;;;3.83;2.65;;;16.90;99.90;;;;;;4997006;28;20034;-79
2022/06/01 06:57:30;;;;;;;2.80;2.50;;;17.10;99.90;;;;;;4997559;28;20030;-79
2022/06/01 06:59:56;;;;;;;2.67;2.47;;;17.10;99.90;;;;;;4995548;28;20041;-78
2022/06/01 07:02:21;;;;;;;3.30;3.00;;;17.10;99.90;;;;;;4978158;28;20068;-79
2022/06/01 07:04:47;;;;;;;3.25;2.65;;;17.20;99.90;;;;;;4980197;28;20029;-79
2022/06/01 07:07:14;;;;;;;3.83;2.70;;;17.30;99.90;;;;;;4997791;28;20549;-80
2022/06/01 07:09:40;;;;;;;6.38;2.58;;;17.40;99.90;;;;;;4999502;28;20034;-79
2022/06/01 07:12:07;;;;;;;2.40;2.20;;;17.30;99.90;;;;;;4999296;28;20049;-79
2022/06/01 07:14:32;;;;;;;2.33;2.00;;;17.10;99.90;;;;;;5003960;28;20217;-79
2022/06/01 07:17:02;;;;;;;2.53;2.28;;;17.10;99.90;;;;;;5000548;28;20371;-79
2022/06/01 07:19:28;;;;;;;3.42;3.08;;;17.30;99.90;;;;;;5003142;28;20512;-79
2022/06/01 07:21:54;;;;;;;2.72;2.20;;;17.30;99.90;;;;;;5000899;28;20034;-79
2022/06/01 07:24:20;;;;;;;3.05;2.25;;;17.60;99.90;;;;;;4998165;28;20061;-78
2022/06/01 07:26:47;;;;;;;2.65;2.45;;;17.70;99.90;;;;;;5000917;28;20032;-78
2022/06/01 07:29:15;;;;;;;2.60;2.40;;;17.70;99.90;;;;;;4999218;28;20046;-79
2022/06/01 07:31:41;;;;;;;2.58;2.38;;;17.80;99.90;;;;;;4999014;28;20632;-79
2022/06/01 07:34:07;;;;;;;2.85;2.03;;;17.80;99.90;;;;;;5003811;28;21200;-78
2022/06/01 07:36:34;;;;;;;3.90;2.00;;;17.90;99.90;;;;;;5001507;28;20388;-79
2022/06/01 07:44:39;;;;;;;2.50;2.30;;;18.20;99.90;;;;;;5001517;28;20033;-78
2022/06/01 07:47:06;;;;;;;2.47;2.03;;;18.30;99.90;;;;;;4999870;28;20505;-78
2022/06/01 07:49:32;;;;;;;2.22;2.08;;;18.60;99.90;;;;;;4981737;28;20366;-78
2022/06/01 07:51:58;;;;;;;2.55;2.35;;;18.70;99.90;;;;;;4983916;28;20041;-78
2022/06/01 07:54:24;;;;;;;2.67;2.20;;;18.70;99.90;;;;;;4999226;28;20038;-78
2022/06/01 07:56:49;;;;;;;3.08;2.30;;;18.90;99.90;;;;;;5001555;28;20439;-78
2022/06/01 07:59:15;;;;;;;2.30;2.15;;;19.20;99.90;;;;;;5005044;28;20042;-78
2022/06/01 08:01:41;;;;;;;2.72;2.17;;;19.10;98.00;;;;;;5002838;28;20042;-78
2022/06/01 08:04:08;;;;;;;3.95;2.10;;;19.00;98.80;;;;;;5001572;28;20038;-79
2022/06/01 08:06:36;;;;;;;3.33;2.03;;;19.00;97.40;;;;;;4998867;28;20446;-77
2022/06/01 08:09:02;;;;;;;1.90;1.80;;;19.20;98.70;;;;;;4997656;28;20473;-79
2022/06/01 08:14:14;;;;;;;3.63;2.15;;;19.10;95.90;;;;;;4998111;28;20420;-79
2022/06/01 08:16:41;;;;;;;2.40;2.20;;;19.10;95.80;;;;;;4999602;28;20577;-79
2022/06/01 08:19:08;;;;;;;3.60;2.28;;;19.20;96.60;;;;;;4997716;28;20050;-79
2022/06/01 08:21:35;;;;;;;2.42;2.08;;;19.40;94.60;;;;;;4999653;28;20465;-79
2022/06/01 08:24:00;;;;;;;3.00;2.20;;;19.30;95.80;;;;;;4997878;28;20116;-79
2022/06/01 08:26:26;;;;;;;1.80;1.70;;;19.40;94.30;;;;;;4999054;28;20040;-79
2022/06/01 08:28:52;;;;;;;4.10;2.15;;;19.70;95.30;;;;;;4998588;28;20042;-79
2022/06/01 08:31:18;;;;;;;3.60;2.10;;;19.70;97.50;;;;;;4996800;28;20042;-79
2022/06/01 08:33:43;;;;;;;2.00;1.80;;;19.50;93.20;;;;;;4996410;28;20477;-78
2022/06/01 08:36:09;;;;;;;2.40;1.90;;;19.40;94.10;;;;;;5000072;28;20034;-79
2022/06/01 08:38:35;;;;;;;1.90;1.80;;;19.50;94.70;;;;;;4980528;28;20061;-79
2022/06/01 08:41:03;;;;;;;4.25;2.17;;;19.70;95.80;;;;;;4999453;28;20033;-78
2022/06/01 08:43:34;;;;;;;2.30;2.10;;;19.70;92.50;;;;;;5001472;28;20044;-78
2022/06/01 08:46:02;;;;;;;3.00;2.08;;;20.00;95.20;;;;;;4982171;28;20156;-78
2022/06/01 08:48:39;;;;;;;3.65;2.70;;;20.10;92.30;;;;;;4999048;28;20092;-79
2022/06/01 08:51:05;;;;;;;2.33;2.13;;;20.10;91.30;;;;;;4996919;28;20404;-79
2022/06/01 08:53:31;;;;;;;2.65;2.00;;;20.50;88.60;;;;;;4998234;28;20048;-79
2022/06/01 08:56:13;;;;;;;2.05;1.88;;;20.30;82.70;;;;;;4998384;28;20028;-78
2022/06/01 08:59:13;;;;;;;2.30;1.95;;;20.50;85.40;;;;;;4998107;28;20026;-79
2022/06/01 09:01:55;;;;;;;3.47;1.80;;;20.70;83.30;;;;;;4957465;28;20061;-79
2022/06/01 09:04:49;;;;;;;2.97;1.90;;;20.60;80.50;;;;;;4997760;28;20477;-80
2022/06/01 09:07:34;;;;;;;2.30;2.00;;;20.60;77.10;;;;;;4998896;28;20038;-80
2022/06/01 09:10:17;;;;;;;1.88;1.77;;;20.50;84.80;;;;;;5001196;28;20064;-79
2022/06/01 09:12:45;;;;;;;1.45;1.35;;;20.80;75.30;;;;;;4998347;28;20207;-79
2022/06/01 09:15:38;;;;;;;3.85;1.92;;;20.70;79.00;;;;;;4999174;28;20117;-79
2022/06/01 09:18:03;;;;;;;2.25;1.55;;;20.90;78.10;;;;;;4997013;28;20054;-80
2022/06/01 09:23:15;;;;;;;1.08;0.98;;;20.60;71.30;;;;;;5001289;28;20196;-80
2022/06/01 09:25:50;;;;;;;0.97;0.97;;;20.40;57.00;;;;;;4998676;28;20037;-79
2022/06/01 09:28:23;;;;;;;2.33;1.80;;;20.00;61.90;;;;;;4998195;28;20124;-79
2022/06/01 09:30:57;;;;;;;1.70;1.60;;;19.80;69.30;;;;;;5000052;28;20435;-79
2022/06/01 09:33:30;;;;;;;2.47;1.65;;;20.20;78.90;;;;;;4999386;28;20040;-79
2022/06/01 09:36:08;;;;;;;1.67;1.58;;;20.50;67.80;;;;;;5001489;28;20037;-79
2022/06/01 09:38:56;;;;;;;2.03;1.90;;;20.70;68.80;;;;;;5003538;28;20061;-78
2022/06/01 09:41:31;;;;;;;2.20;2.00;;;20.90;69.20;;;;;;5003266;28;20034;-79
2022/06/01 09:43:56;;;;;;;5.47;1.63;;;20.70;65.50;;;;;;4999817;28;20038;-79
2022/06/01 09:46:26;;;;;;;1.65;1.55;;;21.10;69.80;;;;;;4996989;28;20047;-79
2022/06/01 09:48:52;;;;;;;2.35;1.70;;;21.20;68.10;;;;;;5001293;28;20489;-78
2022/06/01 09:51:21;;;;;;;3.95;1.90;;;21.60;68.40;;;;;;5001096;28;20038;-78
2022/06/01 09:53:50;;;;;;;1.85;1.75;;;21.60;64.10;;;;;;4998724;28;20673;-79
2022/06/01 09:56:28;;;;;;;5.63;1.90;;;21.90;66.80;;;;;;5004221;28;20033;-79
2022/06/01 10:07:30;;;;;;;2.42;1.70;;;21.40;57.40;;;;;;4999548;28;20107;-78
2022/06/01 10:10:02;;;;;;;2.78;1.70;;;21.20;57.30;;;;;;5001450;28;20493;-78
2022/06/01 10:12:33;;;;;;;1.42;1.27;;;21.40;62.50;;;;;;5000161;28;20034;-79
2022/06/01 10:15:01;;;;;;;2.00;1.88;;;21.70;59.00;;;;;;5001402;28;20038;-78
2022/06/01 10:17:41;;;;;;;1.80;1.70;;;21.80;62.40;;;;;;5006076;28;20061;-78
2022/06/01 10:20:31;;;;;;;2.45;1.50;;;22.00;56.00;;;;;;5006532;28;20042;-78
2022/06/01 10:23:14;;;;;;;3.88;1.73;;;21.50;59.70;;;;;;5001878;28;20061;-78
2022/06/01 10:25:47;;;;;;;3.50;1.80;;;20.80;61.00;;;;;;5004872;28;20092;-78
2022/06/01 10:28:25;;;;;;;2.25;1.70;;;20.70;61.60;;;;;;5005406;28;20437;-77
2022/06/01 10:30:54;;;;;;;2.25;2.13;;;20.50;63.20;;;;;;5006954;28;20105;-79
2022/06/01 10:33:43;;;;;;;1.30;1.20;;;20.30;63.60;;;;;;5005329;28;20066;-78
2022/06/01 10:36:16;;;;;;;1.88;1.67;;;20.10;65.80;;;;;;5002115;28;20030;-77
2022/06/01 10:38:53;;;;;;;2.17;1.70;;;20.20;69.10;;;;;;5002031;28;20062;-78
2022/06/01 10:41:29;;;;;;;2.47;1.88;;;20.20;69.60;;;;;;5007217;28;20033;-78
2022/06/01 10:44:27;;;;;;;1.95;1.40;;;20.20;63.50;;;;;;5002571;28;20045;-78
2022/06/01 10:47:01;;;;;;;3.33;1.85;;;20.40;69.00;;;;;;5008459;28;20456;-77
2022/06/01 10:49:35;;;;;;;2.72;1.40;;;20.70;67.80;;;;;;5003255;28;20053;-79
2022/06/01 10:52:08;;;;;;;1.85;1.65;;;21.00;63.60;;;;;;5003651;28;20030;-78
2022/06/01 10:54:42;;;;;;;1.48;1.38;;;21.00;62.10;;;;;;5008303;28;20033;-78
2022/06/01 10:57:18;;;;;;;2.50;1.63;;;21.10;65.50;;;;;;5003099;28;20026;-78
2022/06/01 10:59:43;;;;;;;1.95;1.70;;;21.00;61.00;;;;;;5005148;28;20029;-78
2022/06/01 11:02:47;;;;;;;1.83;1.30;;;21.00;61.60;;;;;;5004310;28;20036;-78
2022/06/01 11:05:38;;;;;;;2.15;1.55;;;20.80;56.30;;;;;;4989370;28;20177;-78
2022/06/01 11:08:22;;;;;;;1.60;1.50;;;20.70;57.70;;;;;;5009995;28;20037;-78
2022/06/01 11:10:56;;;;;;;1.83;1.73;;;20.90;61.80;;;;;;5007037;28;20845;-78
2022/06/01 11:13:56;;;;;;;2.40;1.77;;;20.80;62.00;;;;;;5009016;28;20041;-77
2022/06/01 11:16:40;;;;;;;2.35;1.58;;;20.90;66.10;;;;;;5002710;28;20116;-78
2022/06/01 11:19:35;;;;;;;1.90;1.80;;;21.10;66.40;;;;;;4991815;28;20137;-78
2022/06/01 11:22:22;;;;;;;1.70;1.52;;;21.10;62.10;;;;;;4992451;28;20495;-78
2022/06/01 11:25:32;;;;;;;2.00;1.80;;;21.20;59.90;;;;;;4998569;28;20586;-78
2022/06/01 11:27:58;;;;;;;1.77;1.63;;;21.40;63.00;;;;;;4983586;28;20469;-79
2022/06/01 11:30:40;;;;;;;3.65;2.00;;;21.30;59.60;;;;;;5002569;28;20045;-77
2022/06/01 11:33:40;;;;;;;2.58;1.77;;;21.40;62.80;;;;;;5000240;28;20026;-79
2022/06/01 11:36:23;;;;;;;2.00;1.60;;;21.50;65.10;;;;;;4987236;28;20057;-79
2022/06/01 11:38:56;;;;;;;1.67;1.58;;;21.80;59.60;;;;;;5009581;28;20060;-79
2022/06/01 11:41:34;;;;;;;1.73;1.48;;;21.50;57.10;;;;;;5007881;28;20046;-78
2022/06/01 11:44:13;;;;;;;2.28;1.60;;;21.50;59.40;;;;;;5004822;28;20022;-78
2022/06/01 11:46:44;;;;;;;2.83;1.50;;;21.60;57.40;;;;;;5003584;28;20478;-78
2022/06/01 11:49:13;;;;;;;1.95;1.65;;;21.80;55.80;;;;;;5006816;28;20041;-78
2022/06/01 11:51:47;;;;;;;2.03;1.90;;;21.40;53.90;;;;;;5008714;28;20042;-78
2022/06/01 11:54:24;;;;;;;1.75;1.55;;;21.30;58.20;;;;;;5008546;28;20040;-78
2022/06/01 11:57:01;;;;;;;2.00;1.60;;;21.30;60.20;;;;;;5005045;28;20038;-78
2022/06/01 11:59:34;;;;;;;1.25;1.15;;;21.40;59.40;;;;;;5004411;28;20132;-79
2022/06/01 12:02:50;;;;;;;3.42;1.60;;;21.30;57.20;;;;;;4987101;28;20045;-78
2022/06/01 12:05:22;;;;;;;1.98;1.52;;;21.50;57.60;;;;;;4950791;28;20505;-78
2022/06/01 12:07:53;;;;;;;1.67;1.58;;;21.50;56.30;;;;;;5000365;28;20053;-78
2022/06/01 12:10:25;;;;;;;3.40;1.58;;;21.40;56.30;;;;;;4999488;28;20022;-78
2022/06/01 12:13:23;;;;;;;4.40;1.48;;;21.60;58.50;;;;;;5002923;28;20121;-78
2022/06/01 12:16:17;;;;;;;3.60;1.65;;;21.50;53.80;;;;;;5006080;28;20029;-78
2022/06/01 12:19:02;;;;;;;1.55;1.35;;;21.30;55.80;;;;;;5003940;28;20073;-78
2022/06/01 12:21:34;;;;;;;3.35;1.58;;;21.30;55.40;;;;;;5003218;28;20049;-78
2022/06/01 12:30:05;;;;;;;1.70;1.58;;;21.20;56.70;;;;;;5004962;28;20511;-78
2022/06/01 12:32:59;;;;;;;4.53;1.35;;;21.20;57.30;;;;;;5004790;28;20038;-78
2022/06/01 12:35:49;;;;;;;1.88;1.73;;;21.00;53.30;;;;;;5004279;28;20409;-77
2022/06/01 12:38:21;;;;;;;1.48;1.40;;;21.00;58.30;;;;;;5000591;28;20092;-78
2022/06/01 12:41:28;;;;;;;1.85;1.75;;;21.00;54.10;;;;;;5006562;28;20050;-78
2022/06/01 12:43:57;;;;;;;1.63;1.52;;;21.20;58.30;;;;;;4970150;28;20137;-78
2022/06/01 12:46:29;;;;;;;2.55;2.20;;;21.30;56.80;;;;;;5003007;28;20128;-77
2022/06/01 12:49:36;;;;;;;1.50;1.40;;;21.30;60.60;;;;;;4997563;28;20518;-78
2022/06/01 12:52:23;;;;;;;2.38;1.52;;;21.30;60.00;;;;;;5002043;28;20038;-77
2022/06/01 12:55:00;;;;;;;2.57;1.80;;;21.20;57.50;;;;;;5002212;28;20026;-78
2022/06/01 12:57:34;;;;;;;1.40;1.27;;;21.20;56.70;;;;;;5001358;28;20021;-78
2022/06/01 13:00:25;;;;;;;2.95;2.03;;;21.10;57.50;;;;;;5002726;28;20112;-77
2022/06/01 13:02:51;;;;;;;2.13;1.50;;;21.00;59.60;;;;;;4995288;28;20160;-78
2022/06/01 13:05:35;;;;;;;2.53;1.98;;;21.00;60.90;;;;;;4979412;28;20046;-77
2022/06/01 13:08:03;;;;;;;2.00;1.80;;;21.10;64.10;;;;;;4987981;28;20037;-77
2022/06/01 13:10:31;;;;;;;;;;;21.30;62.00;;;;;;4995399;28;20843;-77
2022/06/01 13:13:11;;;;;;;2.40;1.30;;;21.30;60.00;;;;;;5004921;28;19910;-77
2022/06/01 13:15:38;;;;;;;1.50;1.40;;;21.00;56.00;;;;;;5005007;28;20022;-77
2022/06/01 13:18:07;;;;;;;1.65;1.45;;;21.10;59.60;;;;;;5006493;28;20493;-77
2022/06/01 13:20:41;;;;;;;1.65;1.55;;;21.10;59.30;;;;;;5002023;28;20032;-78
2022/06/01 13:23:21;;;;;;;1.77;1.60;;;20.90;55.00;;;;;;5003281;28;20038;-78
2022/06/01 13:25:48;;;;;;;2.05;1.48;;;20.80;56.50;;;;;;5001658;28;20057;-78
2022/06/01 13:28:15;;;;;;;2.20;2.00;;;20.60;59.00;;;;;;5006188;28;20481;-78
2022/06/01 13:30:41;;;;;;;1.95;1.40;;;20.50;59.00;;;;;;4998196;28;20058;-78
2022/06/01 13:33:25;;;;;;;1.95;1.60;;;20.40;59.30;;;;;;5006530;28;20081;-77
2022/06/01 13:36:07;;;;;;;1.55;1.40;;;20.20;58.40;;;;;;5001690;28;20049;-77
2022/06/01 13:38:43;;;;;;;2.28;1.52;;;20.00;54.70;;;;;;5001248;28;20025;-77
2022/06/01 13:41:19;;;;;;;1.92;1.75;;;20.00;59.10;;;;;;5004274;28;20511;-77
2022/06/01 13:43:48;;;;;;;2.75;1.75;;;19.90;56.40;;;;;;5007232;28;20035;-78
2022/06/01 13:46:17;;;;;;;2.78;1.70;;;19.90;58.00;;;;;;4999296;28;20104;-77